createdAt,value
2018-04-08T00:02:06.133Z,5.10
2018-04-08T00:04:33.639Z,5.13
2018-04-08T00:07:01.125Z,5.57
2018-04-08T00:09:28.620Z,5.60
2018-04-08T00:11:56.867Z,5.10
2018-04-08T00:14:25.106Z,6.60
2018-04-08T00:16:52.673Z,5.63
2018-04-08T00:19:20.155Z,5.43
2018-04-08T00:21:47.651Z,5.30
2018-04-08T00:24:15.179Z,4.30
2018-04-08T00:26:42.734Z,7.53
2018-04-08T00:29:10.235Z,6.13
2018-04-08T00:31:37.719Z,6.10
2018-04-08T00:34:05.205Z,5.50
2018-04-08T00:36:32.691Z,6.30
2018-04-08T00:39:00.198Z,6.70
2018-04-08T00:41:27.691Z,5.63
2018-04-08T00:43:55.184Z,5.87
2018-04-08T00:46:22.671Z,6.30
2018-04-08T00:48:50.152Z,4.90
2018-04-08T00:51:18.410Z,5.83
2018-04-08T00:53:45.943Z,7.00
2018-04-08T00:56:13.451Z,5.70
2018-04-08T00:58:40.958Z,5.13
2018-04-08T01:01:09.202Z,5.60
2018-04-08T01:03:36.710Z,4.97
2018-04-08T01:06:04.986Z,5.57
2018-04-08T01:08:32.488Z,5.37
2018-04-08T01:10:59.995Z,4.93
2018-04-08T01:13:27.462Z,5.23
2018-04-08T01:15:54.983Z,5.73
2018-04-08T01:18:23.260Z,5.37
2018-04-08T01:20:50.744Z,5.20
2018-04-08T01:23:19.070Z,7.23
2018-04-08T01:25:47.315Z,5.60
2018-04-08T01:28:15.579Z,5.40
2018-04-08T01:30:43.058Z,6.30
2018-04-08T01:33:10.576Z,7.30
2018-04-08T01:35:38.071Z,5.20
2018-04-08T01:38:05.563Z,5.27
2018-04-08T01:40:33.070Z,5.93
2018-04-08T01:43:00.573Z,5.23
2018-04-08T01:45:28.077Z,7.67
2018-04-08T01:47:55.611Z,6.00
2018-04-08T01:50:23.863Z,7.17
2018-04-08T01:52:52.171Z,6.13
2018-04-08T01:55:19.658Z,6.50
2018-04-08T01:57:47.234Z,5.97
2018-04-08T02:00:14.719Z,6.30
2018-04-08T02:02:42.227Z,5.47
2018-04-08T02:05:10.499Z,5.00
2018-04-08T02:07:38.012Z,5.60
2018-04-08T02:10:05.509Z,5.27
2018-04-08T02:12:33.030Z,6.53
2018-04-08T02:15:00.499Z,7.43
2018-04-08T02:17:27.991Z,6.00
2018-04-08T02:19:56.247Z,6.07
2018-04-08T02:22:23.726Z,6.60
2018-04-08T02:24:51.983Z,6.43
2018-04-08T02:27:19.459Z,7.20
2018-04-08T02:29:46.953Z,5.63
2018-04-08T02:32:14.458Z,5.97
2018-04-08T02:34:41.937Z,5.40
2018-04-08T02:37:09.450Z,5.97
2018-04-08T02:39:36.959Z,6.40
2018-04-08T02:42:05.250Z,6.13
2018-04-08T02:44:33.507Z,6.90
2018-04-08T02:47:01.035Z,5.47
2018-04-08T02:49:28.503Z,5.77
2018-04-08T02:51:56.000Z,6.60
2018-04-08T02:54:23.522Z,6.07
2018-04-08T02:56:51.002Z,5.33
2018-04-08T02:59:19.235Z,5.20
2018-04-08T03:01:46.775Z,5.40
2018-04-08T03:04:14.273Z,7.50
2018-04-08T03:06:41.775Z,5.20
2018-04-08T03:09:10.043Z,8.67
2018-04-08T03:11:37.542Z,5.10
2018-04-08T03:14:05.819Z,5.57
2018-04-08T03:16:33.320Z,5.93
2018-04-08T03:19:00.827Z,6.00
2018-04-08T03:21:28.305Z,5.80
2018-04-08T03:23:55.847Z,9.97
2018-04-08T03:26:23.327Z,5.37
2018-04-08T03:28:50.827Z,6.00
2018-04-08T03:31:18.324Z,7.27
2018-04-08T03:33:46.593Z,6.70
2018-04-08T03:36:14.084Z,6.50
2018-04-08T03:38:42.374Z,5.17
2018-04-08T03:41:09.883Z,5.77
2018-04-08T03:43:37.398Z,7.70
2018-04-08T03:46:04.875Z,8.10
2018-04-08T03:48:33.157Z,6.20
2018-04-08T03:51:01.431Z,5.10
2018-04-08T03:53:28.923Z,5.30
2018-04-08T03:55:57.193Z,5.80
2018-04-08T03:58:24.674Z,6.57
2018-04-08T04:00:52.957Z,6.20
2018-04-08T04:03:20.450Z,4.90
2018-04-08T04:05:48.710Z,12.83
2018-04-08T04:08:16.194Z,5.20
2018-04-08T04:10:44.467Z,5.40
2018-04-08T04:13:12.010Z,6.43
2018-04-08T04:15:39.491Z,6.10
2018-04-08T04:18:18.806Z,5.67
2018-04-08T04:20:58.051Z,5.70
2018-04-08T04:23:37.286Z,6.80
2018-04-08T04:26:17.244Z,5.50
2018-04-08T04:28:45.514Z,5.50
2018-04-08T04:31:13.004Z,6.90
2018-04-08T04:33:41.266Z,6.07
2018-04-08T04:36:08.736Z,5.83
2018-04-08T04:38:36.239Z,5.87
2018-04-08T04:41:04.494Z,5.97
2018-04-08T04:43:32.042Z,5.63
2018-04-08T04:45:59.538Z,5.60
2018-04-08T04:48:27.048Z,6.00
2018-04-08T04:50:54.536Z,5.80
2018-04-08T04:53:22.018Z,5.87
2018-04-08T04:55:49.550Z,5.97
2018-04-08T04:58:17.817Z,7.83
2018-04-08T05:00:45.319Z,5.90
2018-04-08T05:03:12.810Z,5.73
2018-04-08T05:05:40.288Z,6.73
2018-04-08T05:08:07.791Z,6.03
2018-04-08T05:10:35.283Z,6.10
2018-04-08T05:13:03.527Z,6.33
2018-04-08T05:15:31.022Z,6.00
2018-04-08T05:17:58.543Z,5.67
2018-04-08T05:20:26.091Z,5.53
2018-04-08T05:22:54.362Z,5.70
2018-04-08T05:25:21.846Z,5.77
2018-04-08T05:27:49.338Z,6.50
2018-04-08T05:30:16.843Z,5.13
2018-04-08T05:32:44.320Z,6.23
2018-04-08T05:35:11.855Z,6.00
2018-04-08T05:37:39.334Z,6.37
2018-04-08T05:40:06.847Z,5.63
2018-04-08T05:42:34.320Z,5.53
2018-04-08T05:45:01.814Z,7.33
2018-04-08T05:47:30.064Z,5.43
2018-04-08T05:49:57.550Z,5.83
2018-04-08T05:52:25.083Z,5.67
2018-04-08T05:54:52.662Z,5.60
2018-04-08T05:57:20.181Z,5.10
2018-04-08T05:59:48.479Z,5.77
2018-04-08T06:02:15.987Z,5.17
2018-04-08T06:04:43.567Z,5.47
2018-04-08T06:07:11.065Z,6.10
2018-04-08T06:09:38.575Z,6.53
2018-04-08T06:12:06.084Z,5.10
2018-04-08T06:14:33.547Z,7.00
2018-04-08T06:17:01.039Z,5.43
2018-04-08T06:19:29.292Z,5.13
2018-04-08T06:21:56.783Z,4.97
2018-04-08T06:24:24.280Z,5.83
2018-04-08T06:26:51.768Z,5.23
2018-04-08T06:29:20.075Z,4.83
2018-04-08T06:31:47.579Z,6.03
2018-04-08T06:34:15.112Z,5.17
2018-04-08T06:36:42.601Z,5.43
2018-04-08T06:39:10.100Z,5.33
2018-04-08T06:41:37.607Z,6.13
2018-04-08T06:44:05.859Z,5.90
2018-04-08T06:46:33.435Z,5.23
2018-04-08T06:49:00.953Z,5.17
2018-04-08T06:51:28.464Z,5.10
2018-04-08T06:53:55.993Z,4.90
2018-04-08T06:56:23.503Z,5.77
2018-04-08T06:58:51.056Z,5.70
2018-04-08T07:01:18.602Z,5.30
2018-04-08T07:03:46.078Z,5.27
2018-04-08T07:06:14.359Z,4.70
2018-04-08T07:08:42.610Z,4.77
2018-04-08T07:11:10.167Z,5.53
2018-04-08T07:13:37.692Z,5.57
2018-04-08T07:16:05.930Z,5.37
2018-04-08T07:18:33.512Z,4.97
2018-04-08T07:21:01.690Z,5.10
2018-04-08T07:23:29.199Z,5.60
2018-04-08T07:25:56.759Z,5.03
2018-04-08T07:28:24.315Z,6.50
2018-04-08T07:30:51.821Z,5.57
2018-04-08T07:33:20.088Z,4.93
2018-04-08T07:35:47.588Z,4.70
2018-04-08T07:38:15.093Z,4.50
2018-04-08T07:40:42.594Z,5.10
2018-04-08T07:43:10.094Z,5.77
2018-04-08T07:45:37.592Z,5.00
2018-04-08T07:48:05.079Z,5.00
2018-04-08T07:50:32.570Z,4.93
2018-04-08T07:53:00.091Z,5.10
2018-04-08T07:55:27.586Z,5.63
2018-04-08T07:57:55.099Z,5.07
2018-04-08T08:00:22.595Z,4.73
2018-04-08T08:02:50.179Z,4.93
2018-04-08T08:05:17.749Z,4.97
2018-04-08T08:07:45.248Z,4.50
2018-04-08T08:10:12.751Z,4.90
2018-04-08T08:12:40.262Z,4.63
2018-04-08T08:15:07.793Z,4.67
2018-04-08T08:17:35.302Z,5.93
2018-04-08T08:20:02.775Z,5.77
2018-04-08T08:22:30.274Z,4.87
2018-04-08T08:24:57.765Z,4.57
2018-04-08T08:27:25.250Z,4.67
2018-04-08T08:29:53.523Z,4.73
2018-04-08T08:32:21.011Z,5.33
2018-04-08T08:34:49.272Z,5.30
2018-04-08T08:37:16.782Z,5.87
2018-04-08T08:39:45.044Z,4.90
2018-04-08T08:42:12.535Z,4.77
2018-04-08T08:44:40.798Z,4.37
2018-04-08T08:47:08.297Z,4.67
2018-04-08T08:49:36.557Z,4.70
2018-04-08T08:52:04.063Z,4.70
2018-04-08T08:54:32.371Z,4.17
2018-04-08T08:56:59.871Z,4.17
2018-04-08T08:59:27.369Z,4.50
2018-04-08T09:01:54.863Z,4.97
2018-04-08T09:04:22.368Z,5.00
2018-04-08T09:06:49.878Z,4.73
2018-04-08T09:09:17.414Z,4.50
2018-04-08T09:11:44.897Z,4.50
2018-04-08T09:14:12.380Z,4.73
2018-04-08T09:16:39.893Z,4.97
2018-04-08T09:19:14.024Z,4.90
2018-04-08T09:24:54.035Z,4.00
2018-04-08T09:27:22.278Z,4.33
2018-04-08T09:29:49.733Z,4.43
2018-04-08T09:32:17.219Z,4.33
2018-04-08T09:34:44.689Z,4.00
2018-04-08T09:37:12.145Z,4.40
2018-04-08T09:39:39.606Z,3.87
2018-04-08T09:42:07.062Z,4.00
2018-04-08T09:44:34.524Z,3.90
2018-04-08T09:47:01.981Z,4.07
2018-04-08T09:49:29.433Z,4.40
2018-04-08T09:51:56.884Z,4.07
2018-04-08T09:54:24.370Z,4.30
2018-04-08T09:56:52.631Z,3.50
2018-04-08T09:59:20.098Z,3.90
2018-04-08T10:01:51.350Z,4.23
2018-04-08T10:04:19.593Z,3.93
2018-04-08T10:06:47.050Z,4.50
2018-04-08T10:09:14.513Z,3.87
2018-04-08T10:11:41.987Z,3.93
2018-04-08T10:14:09.442Z,3.60
2018-04-08T10:16:36.898Z,3.80
2018-04-08T10:19:04.354Z,3.80
2018-04-08T10:21:31.809Z,6.10
2018-04-08T10:23:59.272Z,3.83
2018-04-08T10:26:26.726Z,3.60
2018-04-08T10:28:54.210Z,3.60
2018-04-08T10:31:22.434Z,3.90
2018-04-08T10:33:49.913Z,3.70
2018-04-08T10:36:17.365Z,3.33
2018-04-08T10:38:44.821Z,4.13
2018-04-08T10:41:12.317Z,3.50
2018-04-08T10:43:40.557Z,3.13
2018-04-08T10:46:08.027Z,3.83
2018-04-08T10:48:35.492Z,3.93
2018-04-08T10:51:02.985Z,3.50
2018-04-08T10:53:30.442Z,3.27
2018-04-08T10:55:57.912Z,3.53
2018-04-08T10:58:25.353Z,3.07
2018-04-08T11:00:52.824Z,2.97
2018-04-08T11:03:20.281Z,2.70
2018-04-08T11:05:47.750Z,2.67
2018-04-08T11:08:15.966Z,2.87
2018-04-08T11:10:43.515Z,2.70
2018-04-08T11:13:10.959Z,2.03
2018-04-08T11:15:38.435Z,2.40
2018-04-08T11:18:06.683Z,2.43
2018-04-08T11:20:34.154Z,2.30
2018-04-08T11:23:01.638Z,1.60
2018-04-08T11:25:29.874Z,1.50
2018-04-08T11:27:57.353Z,1.90
2018-04-08T11:30:24.822Z,1.37
2018-04-08T11:32:52.270Z,1.37
2018-04-08T11:35:19.741Z,1.50
2018-04-08T11:37:47.190Z,1.25
2018-04-08T11:40:14.655Z,1.20
2018-04-08T11:42:42.126Z,1.60
2018-04-08T11:45:10.370Z,1.20
2018-04-08T11:47:37.821Z,1.00
2018-04-08T11:50:05.297Z,1.10
2018-04-08T11:52:32.750Z,1.00
2018-04-08T11:55:00.215Z,1.00
2018-04-08T11:57:27.726Z,1.00
2018-04-08T11:59:55.184Z,1.27
2018-04-08T12:02:23.431Z,1.30
2018-04-08T12:04:51.646Z,0.95
2018-04-08T12:07:19.114Z,0.90
2018-04-08T12:09:46.578Z,1.00
2018-04-08T12:12:14.046Z,1.00
2018-04-08T12:14:41.532Z,1.30
2018-04-08T12:17:09.762Z,1.80
2018-04-08T12:19:37.211Z,1.73
2018-04-08T12:22:04.683Z,1.87
2018-04-08T12:24:32.157Z,1.40
2018-04-08T12:27:02.182Z,1.70
2018-04-08T12:29:29.629Z,1.60
2018-04-08T12:31:57.097Z,1.13
2018-04-08T12:34:24.554Z,1.10
2018-04-08T12:36:52.016Z,1.23
2018-04-08T12:39:19.466Z,1.30
2018-04-08T12:41:46.930Z,1.27
2018-04-08T12:44:14.379Z,1.60
2018-04-08T12:46:41.844Z,1.90
2018-04-08T12:49:10.090Z,1.90
2018-04-08T12:51:37.550Z,2.00
2018-04-08T12:54:05.011Z,2.27
2018-04-08T12:56:32.470Z,2.20
2018-04-08T12:58:59.931Z,2.67
2018-04-08T13:01:27.392Z,2.70
2018-04-08T13:03:54.846Z,3.00
2018-04-08T13:06:22.318Z,2.73
2018-04-08T13:08:49.783Z,3.07
2018-04-08T13:11:18.022Z,2.60
2018-04-08T13:13:45.481Z,2.90
2018-04-08T13:16:12.945Z,2.90
2018-04-08T13:18:40.405Z,3.10
2018-04-08T13:21:07.870Z,2.30
2018-04-08T13:23:35.333Z,2.30
2018-04-08T13:26:03.554Z,2.33
2018-04-08T13:28:31.034Z,2.57
2018-04-08T13:30:58.505Z,2.30
2018-04-08T13:33:25.951Z,1.97
2018-04-08T13:35:53.410Z,2.17
2018-04-08T13:38:20.881Z,2.20
2018-04-08T13:40:48.337Z,2.10
2018-04-08T13:43:17.566Z,1.97
2018-04-08T13:45:45.790Z,1.90
2018-04-08T13:48:13.256Z,2.20
2018-04-08T13:50:40.743Z,1.77
2018-04-08T13:53:08.193Z,1.77
2018-04-08T13:55:35.655Z,2.00
2018-04-08T13:58:03.121Z,2.30
2018-04-08T14:00:30.582Z,2.00
2018-04-08T14:02:58.056Z,1.73
2018-04-08T14:05:26.663Z,1.87
2018-04-08T14:07:54.901Z,1.33
2018-04-08T14:10:22.346Z,1.00
2018-04-08T14:12:49.810Z,1.33
2018-04-08T14:15:17.267Z,1.20
2018-04-08T14:17:44.801Z,1.47
2018-04-08T14:20:12.269Z,1.10
2018-04-08T14:22:39.742Z,1.00
2018-04-08T14:25:07.221Z,1.20
2018-04-08T14:27:35.469Z,1.10
2018-04-08T14:30:02.903Z,1.10
2018-04-08T14:32:30.385Z,1.10
2018-04-08T14:34:57.841Z,1.30
2018-04-08T14:37:25.305Z,1.30
2018-04-08T14:39:52.754Z,1.67
2018-04-08T14:42:20.222Z,1.80
2018-04-08T14:44:47.682Z,1.70
2018-04-08T14:47:15.206Z,1.87
2018-04-08T14:49:42.674Z,1.70
2018-04-08T14:52:10.163Z,1.67
2018-04-08T14:54:37.848Z,2.03
2018-04-08T14:57:06.071Z,1.50
2018-04-08T14:59:33.550Z,1.80
2018-04-08T15:02:01.013Z,1.43
2018-04-08T15:04:28.474Z,1.60
2018-04-08T15:06:56.795Z,1.70
2018-04-08T15:09:24.186Z,1.70
2018-04-08T15:11:51.681Z,1.80
2018-04-08T15:14:19.915Z,1.40
2018-04-08T15:16:47.369Z,1.93
2018-04-08T15:19:14.834Z,2.90
2018-04-08T15:21:42.292Z,1.40
2018-04-08T15:24:09.798Z,1.60
2018-04-08T15:26:37.316Z,1.57
2018-04-08T15:29:05.583Z,2.60
2018-04-08T15:31:33.029Z,1.97
2018-04-08T15:34:00.509Z,1.50
2018-04-08T15:36:27.958Z,1.97
2018-04-08T15:38:55.425Z,2.00
2018-04-08T15:41:22.874Z,2.10
2018-04-08T15:43:50.334Z,2.07
2018-04-08T15:46:17.814Z,2.27
2018-04-08T15:48:46.039Z,5.20
2018-04-08T15:51:13.518Z,2.40
2018-04-08T15:53:41.739Z,2.23
2018-04-08T15:56:09.181Z,2.03
2018-04-08T15:58:36.678Z,3.20
2018-04-08T16:01:04.146Z,2.83
2018-04-08T16:03:31.613Z,2.60
2018-04-08T16:05:59.097Z,2.73
2018-04-08T16:08:26.574Z,2.33
2018-04-08T16:10:54.816Z,2.50
2018-04-08T16:13:22.267Z,2.53
2018-04-08T16:15:49.727Z,2.90
2018-04-08T16:18:17.203Z,2.70
2018-04-08T16:20:44.686Z,2.90
2018-04-08T16:23:12.914Z,5.07
2018-04-08T16:25:40.380Z,3.10
2018-04-08T16:28:07.898Z,2.90
2018-04-08T16:30:35.369Z,2.77
2018-04-08T16:33:02.820Z,2.80
2018-04-08T16:35:30.282Z,4.80
2018-04-08T16:37:57.768Z,2.93
2018-04-08T16:40:25.234Z,3.70
2018-04-08T16:42:52.685Z,3.27
2018-04-08T16:45:20.154Z,3.10
2018-04-08T16:47:47.629Z,2.83
2018-04-08T16:50:15.867Z,2.83
2018-04-08T16:52:43.321Z,3.00
2018-04-08T16:55:10.797Z,2.70
2018-04-08T16:57:38.266Z,4.43
2018-04-08T17:00:06.501Z,2.90
2018-04-08T17:02:33.982Z,5.90
2018-04-08T17:05:01.457Z,3.20
2018-04-08T17:07:28.979Z,2.90
2018-04-08T17:09:56.466Z,3.80
2018-04-08T17:12:23.944Z,3.03
2018-04-08T17:14:52.192Z,3.20
2018-04-08T17:17:19.717Z,9.50
2018-04-08T17:19:47.203Z,3.37
2018-04-08T17:22:14.655Z,3.67
2018-04-08T17:24:42.112Z,4.23
2018-04-08T17:27:09.576Z,3.70
2018-04-08T17:29:37.036Z,3.20
2018-04-08T17:32:04.508Z,4.33
2018-04-08T17:34:31.974Z,3.73
2018-04-08T17:37:00.227Z,2.90
2018-04-08T17:39:27.685Z,3.40
2018-04-08T17:41:55.163Z,3.17
2018-04-08T17:44:22.643Z,2.67
2018-04-08T17:46:50.162Z,3.43
2018-04-08T17:49:17.639Z,2.90
2018-04-08T17:51:45.118Z,2.97
2018-04-08T17:54:13.393Z,3.40
2018-04-08T17:56:40.923Z,3.07
2018-04-08T17:59:08.393Z,3.17
2018-04-08T18:01:36.643Z,3.27
2018-04-08T18:04:04.879Z,3.10
2018-04-08T18:06:32.342Z,3.30
2018-04-08T18:09:00.574Z,3.70
2018-04-08T18:11:28.052Z,4.70
2018-04-08T18:13:55.517Z,3.03
2018-04-08T18:16:22.975Z,3.10
2018-04-08T18:18:50.426Z,3.37
2018-04-08T18:21:18.659Z,3.30
2018-04-08T18:23:46.121Z,2.83
2018-04-08T18:26:13.582Z,3.13
2018-04-08T18:28:41.050Z,3.77
2018-04-08T18:31:08.506Z,3.07
2018-04-08T18:33:35.982Z,3.50
2018-04-08T18:36:04.230Z,3.23
2018-04-08T18:38:31.684Z,3.67
2018-04-08T18:40:59.154Z,3.33
2018-04-08T18:43:27.398Z,3.07
2018-04-08T18:45:54.866Z,3.47
2018-04-08T18:48:22.330Z,4.60
2018-04-08T18:50:49.820Z,3.57
2018-04-08T18:53:17.245Z,3.10
2018-04-08T18:55:44.702Z,3.10
2018-04-08T18:58:12.166Z,3.30
2018-04-08T19:00:39.607Z,3.03
2018-04-08T19:03:07.076Z,3.53
2018-04-08T19:05:34.547Z,4.37
2018-04-08T19:08:02.002Z,3.13
2018-04-08T19:10:29.458Z,3.30
2018-04-08T19:12:56.914Z,2.97
2018-04-08T19:15:24.398Z,2.97
2018-04-08T19:17:58.304Z,3.33
2018-04-08T19:20:26.533Z,3.13
2018-04-08T19:22:53.989Z,2.73
2018-04-08T19:25:21.445Z,5.60
2018-04-08T19:27:48.914Z,3.20
2018-04-08T19:30:22.981Z,2.97
2018-04-08T19:32:50.449Z,3.07
2018-04-08T19:35:17.918Z,2.67
2018-04-08T19:37:45.390Z,2.77
2018-04-08T19:40:12.997Z,3.13
2018-04-08T19:42:41.232Z,3.03
2018-04-08T19:45:08.689Z,2.83
2018-04-08T19:47:36.145Z,3.37
2018-04-08T19:50:03.598Z,3.00
2018-04-08T19:52:31.823Z,2.57
2018-04-08T19:55:00.060Z,3.90
2018-04-08T19:57:27.556Z,3.10
2018-04-08T19:59:55.039Z,2.90
2018-04-08T20:02:22.486Z,2.77
2018-04-08T20:04:49.941Z,3.07
2018-04-08T20:07:17.421Z,2.77
2018-04-08T20:09:44.898Z,2.87
2018-04-08T20:12:12.348Z,2.80
2018-04-08T20:14:39.821Z,2.70
2018-04-08T20:17:07.262Z,3.07
2018-04-08T20:19:34.726Z,2.87
2018-04-08T20:22:02.174Z,3.03
2018-04-08T20:24:29.633Z,2.90
2018-04-08T20:26:57.098Z,2.70
2018-04-08T20:29:25.324Z,2.93
2018-04-08T20:31:52.787Z,3.40
2018-04-08T20:34:21.017Z,2.50
2018-04-08T20:36:48.485Z,2.90
2018-04-08T20:39:15.931Z,3.10
2018-04-08T20:41:43.374Z,2.80
2018-04-08T20:44:10.866Z,3.20
2018-04-08T20:46:38.329Z,3.27
2018-04-08T20:49:05.864Z,2.60
2018-04-08T20:51:34.015Z,3.07
2018-04-08T20:54:01.474Z,2.67
2018-04-08T20:56:28.926Z,2.70
2018-04-08T20:58:56.387Z,2.97
2018-04-08T21:01:23.865Z,2.63
2018-04-08T21:03:51.323Z,2.93
2018-04-08T21:06:18.770Z,2.80
2018-04-08T21:08:46.225Z,2.60
2018-04-08T21:11:13.687Z,2.37
2018-04-08T21:13:41.142Z,2.90
2018-04-08T21:16:08.603Z,2.63
2018-04-08T21:18:36.054Z,3.40
2018-04-08T21:21:04.266Z,2.93
2018-04-08T21:23:31.731Z,3.07
2018-04-08T21:25:59.178Z,2.93
2018-04-08T21:28:26.637Z,2.77
2018-04-08T21:30:54.865Z,2.77
2018-04-08T21:33:22.329Z,2.80
2018-04-08T21:35:49.794Z,3.33
2018-04-08T21:38:17.262Z,3.10
2018-04-08T21:40:44.728Z,2.73
2018-04-08T21:43:12.189Z,2.80
2018-04-08T21:45:39.651Z,3.00
2018-04-08T21:48:07.102Z,3.63
2018-04-08T21:50:34.574Z,2.77
2018-04-08T21:53:02.035Z,3.17
2018-04-08T21:55:30.266Z,3.40
2018-04-08T21:57:57.722Z,3.13
2018-04-08T22:00:25.194Z,3.23
2018-04-08T22:02:52.656Z,3.20
2018-04-08T22:05:20.122Z,3.30
2018-04-08T22:07:47.586Z,2.90
2018-04-08T22:10:15.053Z,3.20
2018-04-08T22:12:43.295Z,3.13
2018-04-08T22:15:10.774Z,2.87
2018-04-08T22:17:38.230Z,3.37
2018-04-08T22:20:05.698Z,4.50
2018-04-08T22:22:33.145Z,3.07
2018-04-08T22:25:00.603Z,3.20
2018-04-08T22:27:28.062Z,3.70
2018-04-08T22:29:55.533Z,3.00
2018-04-08T22:32:23.758Z,3.83
2018-04-08T22:34:51.222Z,3.43
2018-04-08T22:37:18.681Z,3.07
2018-04-08T22:39:46.149Z,2.67
2018-04-08T22:42:13.602Z,3.13
2018-04-08T22:44:41.075Z,3.30
2018-04-08T22:47:08.518Z,3.67
2018-04-08T22:49:35.987Z,3.50
2018-04-08T22:52:03.441Z,3.73
2018-04-08T22:54:30.905Z,3.73
2018-04-08T22:56:58.349Z,3.13
2018-04-08T22:59:25.815Z,4.10
2018-04-08T23:01:53.269Z,3.07
2018-04-08T23:04:20.730Z,3.30
2018-04-08T23:06:48.198Z,3.40
2018-04-08T23:09:15.658Z,3.17
2018-04-08T23:11:43.205Z,3.37
2018-04-08T23:14:10.618Z,3.17
2018-04-08T23:16:38.101Z,3.80
2018-04-08T23:19:05.556Z,3.43
2018-04-08T23:21:33.018Z,6.07
2018-04-08T23:24:00.505Z,3.70
2018-04-08T23:26:27.966Z,3.40
2018-04-08T23:28:55.437Z,3.87
2018-04-08T23:31:22.911Z,3.07
2018-04-08T23:33:50.363Z,3.47
2018-04-08T23:36:17.849Z,3.20
2018-04-08T23:38:45.350Z,3.60
2018-04-08T23:41:12.804Z,4.50
2018-04-08T23:43:40.273Z,3.50
2018-04-08T23:46:08.517Z,3.77
2018-04-08T23:48:35.970Z,3.63
2018-04-08T23:51:03.440Z,3.53
2018-04-08T23:53:31.679Z,3.80
2018-04-08T23:55:59.161Z,4.10
2018-04-08T23:58:26.603Z,4.20
